sensor_id;sensor_type;location;lat;lon;timestamp;P1;durP1;ratioP1;P2;durP2;ratioP2
5299;SDS011;2672;42.670;23.258;2023-02-11T00:00:31;24.77;;;10.20;;
5299;SDS011;2672;42.670;23.258;2023-02-11T00:02:56;19.63;;;9.13;;
5299;SDS011;2672;42.670;23.258;2023-02-11T00:05:21;19.73;;;10.40;;
5299;SDS011;2672;42.670;23.258;2023-02-11T00:07:47;12.90;;;7.10;;
5299;SDS011;2672;42.670;23.258;2023-02-11T00:10:12;12.60;;;7.57;;
5299;SDS011;2672;42.670;23.258;2023-02-11T00:12:37;13.93;;;7.70;;
5299;SDS011;2672;42.670;23.258;2023-02-11T00:15:03;11.80;;;7.80;;
5299;SDS011;2672;42.670;23.258;2023-02-11T00:17:28;11.48;;;6.47;;
5299;SDS011;2672;42.670;23.258;2023-02-11T00:19:54;9.30;;;5.83;;
5299;SDS011;2672;42.670;23.258;2023-02-11T00:22:19;10.23;;;5.60;;
5299;SDS011;2672;42.670;23.258;2023-02-11T00:24:44;9.53;;;5.90;;
5299;SDS011;2672;42.670;23.258;2023-02-11T00:27:10;11.60;;;6.40;;
5299;SDS011;2672;42.670;23.258;2023-02-11T00:29:35;11.70;;;7.03;;
5299;SDS011;2672;42.670;23.258;2023-02-11T00:32:01;13.77;;;7.37;;
5299;SDS011;2672;42.670;23.258;2023-02-11T00:34:32;12.20;;;7.28;;
5299;SDS011;2672;42.670;23.258;2023-02-11T00:36:57;9.55;;;6.80;;
5299;SDS011;2672;42.670;23.258;2023-02-11T00:39:23;16.97;;;7.90;;
5299;SDS011;2672;42.670;23.258;2023-02-11T00:41:48;11.77;;;6.70;;
5299;SDS011;2672;42.670;23.258;2023-02-11T00:44:13;21.63;;;9.10;;
5299;SDS011;2672;42.670;23.258;2023-02-11T00:46:39;13.07;;;7.80;;
5299;SDS011;2672;42.670;23.258;2023-02-11T00:49:04;8.40;;;6.43;;
5299;SDS011;2672;42.670;23.258;2023-02-11T00:51:29;10.70;;;5.60;;
5299;SDS011;2672;42.670;23.258;2023-02-11T00:53:54;9.47;;;5.40;;
5299;SDS011;2672;42.670;23.258;2023-02-11T00:56:20;15.27;;;6.17;;
5299;SDS011;2672;42.670;23.258;2023-02-11T00:58:45;16.73;;;6.63;;
5299;SDS011;2672;42.670;23.258;2023-02-11T01:01:11;6.90;;;5.10;;
5299;SDS011;2672;42.670;23.258;2023-02-11T01:03:36;21.20;;;6.93;;
5299;SDS011;2672;42.670;23.258;2023-02-11T01:06:02;12.37;;;6.63;;
5299;SDS011;2672;42.670;23.258;2023-02-11T01:08:27;14.57;;;7.40;;
5299;SDS011;2672;42.670;23.258;2023-02-11T01:10:56;8.57;;;5.63;;
5299;SDS011;2672;42.670;23.258;2023-02-11T01:13:21;11.48;;;6.00;;
5299;SDS011;2672;42.670;23.258;2023-02-11T01:15:46;12.37;;;6.50;;
5299;SDS011;2672;42.670;23.258;2023-02-11T01:18:12;11.07;;;7.30;;
5299;SDS011;2672;42.670;23.258;2023-02-11T01:20:37;13.07;;;6.67;;
5299;SDS011;2672;42.670;23.258;2023-02-11T01:23:02;12.13;;;6.63;;
5299;SDS011;2672;42.670;23.258;2023-02-11T01:25:27;8.87;;;5.77;;
5299;SDS011;2672;42.670;23.258;2023-02-11T01:27:53;11.47;;;7.07;;
5299;SDS011;2672;42.670;23.258;2023-02-11T01:30:18;8.83;;;5.70;;
5299;SDS011;2672;42.670;23.258;2023-02-11T01:32:43;10.33;;;6.20;;
5299;SDS011;2672;42.670;23.258;2023-02-11T01:35:09;12.00;;;6.00;;
5299;SDS011;2672;42.670;23.258;2023-02-11T01:37:34;9.93;;;5.93;;
5299;SDS011;2672;42.670;23.258;2023-02-11T01:40:00;10.63;;;5.53;;
5299;SDS011;2672;42.670;23.258;2023-02-11T01:42:25;11.60;;;6.90;;
5299;SDS011;2672;42.670;23.258;2023-02-11T01:44:52;9.33;;;6.27;;
5299;SDS011;2672;42.670;23.258;2023-02-11T01:47:18;11.68;;;6.03;;
5299;SDS011;2672;42.670;23.258;2023-02-11T01:49:49;8.57;;;5.33;;
5299;SDS011;2672;42.670;23.258;2023-02-11T01:54:45;12.23;;;6.17;;
5299;SDS011;2672;42.670;23.258;2023-02-11T01:57:31;10.23;;;6.47;;
5299;SDS011;2672;42.670;23.258;2023-02-11T02:00:09;13.48;;;7.35;;
5299;SDS011;2672;42.670;23.258;2023-02-11T02:08:39;7.60;;;4.75;;
5299;SDS011;2672;42.670;23.258;2023-02-11T02:10:43;8.85;;;5.30;;
5299;SDS011;2672;42.670;23.258;2023-02-11T02:13:09;14.77;;;5.95;;
5299;SDS011;2672;42.670;23.258;2023-02-11T02:15:35;9.20;;;5.97;;
5299;SDS011;2672;42.670;23.258;2023-02-11T02:25:41;12.20;;;7.40;;
5299;SDS011;2672;42.670;23.258;2023-02-11T02:28:22;8.38;;;6.30;;
5299;SDS011;2672;42.670;23.258;2023-02-11T02:43:12;12.03;;;7.00;;
5299;SDS011;2672;42.670;23.258;2023-02-11T02:45:37;11.30;;;5.83;;
5299;SDS011;2672;42.670;23.258;2023-02-11T02:48:03;11.97;;;6.20;;
5299;SDS011;2672;42.670;23.258;2023-02-11T02:50:30;12.80;;;6.57;;
5299;SDS011;2672;42.670;23.258;2023-02-11T02:58:08;13.25;;;6.20;;
5299;SDS011;2672;42.670;23.258;2023-02-11T03:00:50;8.05;;;4.95;;
5299;SDS011;2672;42.670;23.258;2023-02-11T03:05:48;10.20;;;6.33;;
5299;SDS011;2672;42.670;23.258;2023-02-11T03:08:15;10.27;;;6.10;;
5299;SDS011;2672;42.670;23.258;2023-02-11T03:10:42;7.80;;;5.32;;
5299;SDS011;2672;42.670;23.258;2023-02-11T03:13:09;13.07;;;7.25;;
5299;SDS011;2672;42.670;23.258;2023-02-11T03:15:38;10.00;;;6.17;;
5299;SDS011;2672;42.670;23.258;2023-02-11T03:18:05;17.25;;;6.40;;
5299;SDS011;2672;42.670;23.258;2023-02-11T03:20:31;11.32;;;6.40;;
5299;SDS011;2672;42.670;23.258;2023-02-11T03:23:19;10.52;;;5.95;;
5299;SDS011;2672;42.670;23.258;2023-02-11T03:25:49;15.80;;;6.80;;
5299;SDS011;2672;42.670;23.258;2023-02-11T03:28:17;10.35;;;6.25;;
5299;SDS011;2672;42.670;23.258;2023-02-11T03:30:48;13.52;;;7.15;;
5299;SDS011;2672;42.670;23.258;2023-02-11T03:33:19;16.98;;;7.38;;
5299;SDS011;2672;42.670;23.258;2023-02-11T03:35:49;8.27;;;6.13;;
5299;SDS011;2672;42.670;23.258;2023-02-11T03:38:20;13.30;;;6.35;;
5299;SDS011;2672;42.670;23.258;2023-02-11T03:40:46;8.25;;;4.80;;
5299;SDS011;2672;42.670;23.258;2023-02-11T03:43:19;11.53;;;6.27;;
5299;SDS011;2672;42.670;23.258;2023-02-11T03:45:47;9.93;;;6.57;;
5299;SDS011;2672;42.670;23.258;2023-02-11T03:48:21;12.38;;;5.70;;
5299;SDS011;2672;42.670;23.258;2023-02-11T03:50:48;11.68;;;5.97;;
5299;SDS011;2672;42.670;23.258;2023-02-11T03:53:15;11.50;;;6.18;;
5299;SDS011;2672;42.670;23.258;2023-02-11T03:55:41;10.98;;;6.53;;
5299;SDS011;2672;42.670;23.258;2023-02-11T03:58:07;11.40;;;6.28;;
5299;SDS011;2672;42.670;23.258;2023-02-11T04:00:34;12.67;;;7.90;;
5299;SDS011;2672;42.670;23.258;2023-02-11T04:03:00;14.23;;;7.93;;
5299;SDS011;2672;42.670;23.258;2023-02-11T04:05:26;10.20;;;6.27;;
5299;SDS011;2672;42.670;23.258;2023-02-11T04:07:51;10.93;;;5.13;;
5299;SDS011;2672;42.670;23.258;2023-02-11T04:10:16;11.80;;;6.00;;
5299;SDS011;2672;42.670;23.258;2023-02-11T04:12:41;13.50;;;8.60;;
5299;SDS011;2672;42.670;23.258;2023-02-11T04:15:07;13.10;;;7.00;;
5299;SDS011;2672;42.670;23.258;2023-02-11T04:17:32;9.73;;;6.67;;
5299;SDS011;2672;42.670;23.258;2023-02-11T04:19:57;13.70;;;6.77;;
5299;SDS011;2672;42.670;23.258;2023-02-11T04:22:23;11.00;;;6.37;;
5299;SDS011;2672;42.670;23.258;2023-02-11T04:24:48;24.07;;;9.93;;
5299;SDS011;2672;42.670;23.258;2023-02-11T04:27:13;17.03;;;9.27;;
5299;SDS011;2672;42.670;23.258;2023-02-11T04:29:38;11.63;;;6.70;;
5299;SDS011;2672;42.670;23.258;2023-02-11T04:32:04;9.87;;;5.70;;
5299;SDS011;2672;42.670;23.258;2023-02-11T04:34:29;15.93;;;7.07;;
5299;SDS011;2672;42.670;23.258;2023-02-11T04:36:54;16.33;;;6.37;;
5299;SDS011;2672;42.670;23.258;2023-02-11T04:39:19;10.10;;;6.10;;
5299;SDS011;2672;42.670;23.258;2023-02-11T04:41:45;12.07;;;6.63;;
5299;SDS011;2672;42.670;23.258;2023-02-11T04:44:10;10.53;;;6.60;;
5299;SDS011;2672;42.670;23.258;2023-02-11T04:46:35;11.20;;;6.30;;
5299;SDS011;2672;42.670;23.258;2023-02-11T04:49:01;13.17;;;6.10;;
5299;SDS011;2672;42.670;23.258;2023-02-11T04:51:26;26.03;;;6.47;;
5299;SDS011;2672;42.670;23.258;2023-02-11T04:53:51;11.10;;;5.20;;
5299;SDS011;2672;42.670;23.258;2023-02-11T04:56:16;12.03;;;6.87;;
5299;SDS011;2672;42.670;23.258;2023-02-11T04:58:42;11.20;;;5.90;;
5299;SDS011;2672;42.670;23.258;2023-02-11T05:01:08;12.90;;;7.03;;
5299;SDS011;2672;42.670;23.258;2023-02-11T05:03:33;10.25;;;6.75;;
5299;SDS011;2672;42.670;23.258;2023-02-11T05:05:59;16.70;;;8.27;;
5299;SDS011;2672;42.670;23.258;2023-02-11T05:08:24;14.57;;;8.27;;
5299;SDS011;2672;42.670;23.258;2023-02-11T05:10:49;14.07;;;6.40;;
5299;SDS011;2672;42.670;23.258;2023-02-11T05:13:15;10.90;;;5.97;;
5299;SDS011;2672;42.670;23.258;2023-02-11T05:15:40;8.20;;;6.07;;
5299;SDS011;2672;42.670;23.258;2023-02-11T05:18:05;11.70;;;6.10;;
5299;SDS011;2672;42.670;23.258;2023-02-11T05:20:30;15.23;;;7.03;;
5299;SDS011;2672;42.670;23.258;2023-02-11T05:22:56;9.50;;;4.77;;
5299;SDS011;2672;42.670;23.258;2023-02-11T05:25:21;14.93;;;6.80;;
5299;SDS011;2672;42.670;23.258;2023-02-11T05:27:46;14.20;;;7.47;;
5299;SDS011;2672;42.670;23.258;2023-02-11T05:30:11;11.27;;;6.60;;
5299;SDS011;2672;42.670;23.258;2023-02-11T05:32:37;13.53;;;7.27;;
5299;SDS011;2672;42.670;23.258;2023-02-11T05:35:02;33.70;;;15.50;;
5299;SDS011;2672;42.670;23.258;2023-02-11T05:37:28;24.50;;;11.73;;
5299;SDS011;2672;42.670;23.258;2023-02-11T05:39:53;32.17;;;15.50;;
5299;SDS011;2672;42.670;23.258;2023-02-11T05:42:18;28.50;;;13.90;;
5299;SDS011;2672;42.670;23.258;2023-02-11T05:44:43;23.47;;;12.93;;
5299;SDS011;2672;42.670;23.258;2023-02-11T05:47:09;29.97;;;12.90;;
5299;SDS011;2672;42.670;23.258;2023-02-11T05:49:34;23.17;;;12.40;;
5299;SDS011;2672;42.670;23.258;2023-02-11T05:51:59;27.17;;;13.23;;
5299;SDS011;2672;42.670;23.258;2023-02-11T05:54:24;23.67;;;11.60;;
5299;SDS011;2672;42.670;23.258;2023-02-11T05:56:50;46.60;;;18.80;;
5299;SDS011;2672;42.670;23.258;2023-02-11T05:59:15;33.00;;;18.37;;
5299;SDS011;2672;42.670;23.258;2023-02-11T06:01:47;18.30;;;10.70;;
5299;SDS011;2672;42.670;23.258;2023-02-11T06:04:12;19.67;;;10.03;;
5299;SDS011;2672;42.670;23.258;2023-02-11T06:06:37;16.97;;;10.30;;
5299;SDS011;2672;42.670;23.258;2023-02-11T06:09:03;19.93;;;9.63;;
5299;SDS011;2672;42.670;23.258;2023-02-11T06:11:28;30.03;;;12.70;;
5299;SDS011;2672;42.670;23.258;2023-02-11T06:13:53;21.40;;;10.40;;
5299;SDS011;2672;42.670;23.258;2023-02-11T06:16:19;18.67;;;10.70;;
5299;SDS011;2672;42.670;23.258;2023-02-11T06:18:44;22.83;;;11.90;;
5299;SDS011;2672;42.670;23.258;2023-02-11T06:21:09;20.27;;;9.63;;
5299;SDS011;2672;42.670;23.258;2023-02-11T06:23:35;18.53;;;8.80;;
5299;SDS011;2672;42.670;23.258;2023-02-11T06:26:02;14.40;;;9.40;;
5299;SDS011;2672;42.670;23.258;2023-02-11T06:28:27;15.70;;;9.35;;
5299;SDS011;2672;42.670;23.258;2023-02-11T06:30:55;15.98;;;8.82;;
5299;SDS011;2672;42.670;23.258;2023-02-11T06:33:20;16.03;;;9.30;;
5299;SDS011;2672;42.670;23.258;2023-02-11T06:35:45;17.83;;;9.67;;
5299;SDS011;2672;42.670;23.258;2023-02-11T06:38:10;15.27;;;9.07;;
5299;SDS011;2672;42.670;23.258;2023-02-11T06:40:36;18.90;;;8.23;;
5299;SDS011;2672;42.670;23.258;2023-02-11T06:43:01;14.60;;;9.30;;
5299;SDS011;2672;42.670;23.258;2023-02-11T06:45:26;18.13;;;10.07;;
5299;SDS011;2672;42.670;23.258;2023-02-11T06:47:51;19.87;;;10.30;;
5299;SDS011;2672;42.670;23.258;2023-02-11T06:50:17;21.13;;;10.80;;
5299;SDS011;2672;42.670;23.258;2023-02-11T06:52:42;14.53;;;9.07;;
5299;SDS011;2672;42.670;23.258;2023-02-11T06:55:08;12.20;;;7.27;;
5299;SDS011;2672;42.670;23.258;2023-02-11T06:57:33;11.47;;;6.33;;
5299;SDS011;2672;42.670;23.258;2023-02-11T06:59:58;12.60;;;6.90;;
5299;SDS011;2672;42.670;23.258;2023-02-11T07:02:23;18.93;;;9.60;;
5299;SDS011;2672;42.670;23.258;2023-02-11T07:04:49;14.77;;;8.73;;
5299;SDS011;2672;42.670;23.258;2023-02-11T07:07:14;12.33;;;5.80;;
5299;SDS011;2672;42.670;23.258;2023-02-11T07:09:39;15.20;;;8.90;;
5299;SDS011;2672;42.670;23.258;2023-02-11T07:12:05;17.60;;;9.13;;
5299;SDS011;2672;42.670;23.258;2023-02-11T07:14:30;17.33;;;9.10;;
5299;SDS011;2672;42.670;23.258;2023-02-11T07:16:55;22.33;;;10.80;;
5299;SDS011;2672;42.670;23.258;2023-02-11T07:19:21;16.27;;;9.27;;
5299;SDS011;2672;42.670;23.258;2023-02-11T07:21:46;16.93;;;9.73;;
5299;SDS011;2672;42.670;23.258;2023-02-11T07:24:12;21.88;;;11.15;;
5299;SDS011;2672;42.670;23.258;2023-02-11T07:26:37;17.13;;;9.83;;
5299;SDS011;2672;42.670;23.258;2023-02-11T07:29:03;18.47;;;9.77;;
5299;SDS011;2672;42.670;23.258;2023-02-11T07:31:28;20.87;;;9.37;;
5299;SDS011;2672;42.670;23.258;2023-02-11T07:33:55;14.97;;;7.83;;
5299;SDS011;2672;42.670;23.258;2023-02-11T07:36:20;15.55;;;9.95;;
5299;SDS011;2672;42.670;23.258;2023-02-11T07:38:45;16.70;;;10.00;;
5299;SDS011;2672;42.670;23.258;2023-02-11T07:41:12;18.97;;;9.90;;
5299;SDS011;2672;42.670;23.258;2023-02-11T07:43:38;16.35;;;8.02;;
5299;SDS011;2672;42.670;23.258;2023-02-11T07:46:08;21.73;;;8.03;;
5299;SDS011;2672;42.670;23.258;2023-02-11T07:48:33;15.93;;;8.95;;
5299;SDS011;2672;42.670;23.258;2023-02-11T07:53:30;31.00;;;13.43;;
5299;SDS011;2672;42.670;23.258;2023-02-11T07:55:55;17.57;;;9.20;;
5299;SDS011;2672;42.670;23.258;2023-02-11T07:58:20;17.47;;;9.37;;
5299;SDS011;2672;42.670;23.258;2023-02-11T08:00:46;19.50;;;9.03;;
5299;SDS011;2672;42.670;23.258;2023-02-11T08:03:11;19.33;;;9.07;;
5299;SDS011;2672;42.670;23.258;2023-02-11T08:05:37;13.23;;;8.00;;
5299;SDS011;2672;42.670;23.258;2023-02-11T08:08:02;14.40;;;8.53;;
5299;SDS011;2672;42.670;23.258;2023-02-11T08:10:27;17.23;;;9.00;;
5299;SDS011;2672;42.670;23.258;2023-02-11T08:12:53;16.57;;;9.53;;
5299;SDS011;2672;42.670;23.258;2023-02-11T08:15:19;15.07;;;9.40;;
5299;SDS011;2672;42.670;23.258;2023-02-11T08:17:44;18.30;;;10.50;;
5299;SDS011;2672;42.670;23.258;2023-02-11T08:20:09;17.20;;;9.40;;
5299;SDS011;2672;42.670;23.258;2023-02-11T08:22:35;15.47;;;9.63;;
5299;SDS011;2672;42.670;23.258;2023-02-11T08:25:00;18.00;;;9.93;;
5299;SDS011;2672;42.670;23.258;2023-02-11T08:27:25;19.20;;;9.67;;
5299;SDS011;2672;42.670;23.258;2023-02-11T08:29:51;18.73;;;10.87;;
5299;SDS011;2672;42.670;23.258;2023-02-11T08:32:17;20.50;;;10.37;;
5299;SDS011;2672;42.670;23.258;2023-02-11T08:34:42;19.47;;;10.67;;
5299;SDS011;2672;42.670;23.258;2023-02-11T08:37:07;18.23;;;9.83;;
5299;SDS011;2672;42.670;23.258;2023-02-11T08:39:33;21.67;;;12.47;;
5299;SDS011;2672;42.670;23.258;2023-02-11T08:41:58;21.37;;;11.70;;
5299;SDS011;2672;42.670;23.258;2023-02-11T08:44:24;25.57;;;12.90;;
5299;SDS011;2672;42.670;23.258;2023-02-11T08:46:49;19.23;;;10.63;;
5299;SDS011;2672;42.670;23.258;2023-02-11T08:49:15;28.37;;;10.80;;
5299;SDS011;2672;42.670;23.258;2023-02-11T08:51:40;18.27;;;10.07;;
5299;SDS011;2672;42.670;23.258;2023-02-11T08:54:05;20.23;;;10.30;;
5299;SDS011;2672;42.670;23.258;2023-02-11T08:56:33;27.15;;;11.07;;
5299;SDS011;2672;42.670;23.258;2023-02-11T08:58:58;17.67;;;10.07;;
5299;SDS011;2672;42.670;23.258;2023-02-11T09:01:25;21.07;;;11.60;;
5299;SDS011;2672;42.670;23.258;2023-02-11T09:03:51;16.27;;;10.23;;
5299;SDS011;2672;42.670;23.258;2023-02-11T09:06:16;16.37;;;9.43;;
5299;SDS011;2672;42.670;23.258;2023-02-11T09:08:43;15.52;;;9.35;;
5299;SDS011;2672;42.670;23.258;2023-02-11T09:11:09;18.92;;;10.20;;
5299;SDS011;2672;42.670;23.258;2023-02-11T09:13:35;23.47;;;11.03;;
5299;SDS011;2672;42.670;23.258;2023-02-11T09:16:01;27.70;;;12.10;;
5299;SDS011;2672;42.670;23.258;2023-02-11T09:18:27;21.13;;;10.53;;
5299;SDS011;2672;42.670;23.258;2023-02-11T09:21:04;18.17;;;10.03;;
5299;SDS011;2672;42.670;23.258;2023-02-11T09:23:30;18.57;;;10.23;;
5299;SDS011;2672;42.670;23.258;2023-02-11T09:25:58;23.30;;;11.60;;
5299;SDS011;2672;42.670;23.258;2023-02-11T09:28:23;23.90;;;12.47;;
5299;SDS011;2672;42.670;23.258;2023-02-11T09:30:48;21.97;;;10.83;;
5299;SDS011;2672;42.670;23.258;2023-02-11T09:33:13;17.90;;;10.53;;
5299;SDS011;2672;42.670;23.258;2023-02-11T09:35:39;20.07;;;9.73;;
5299;SDS011;2672;42.670;23.258;2023-02-11T09:38:04;18.73;;;9.63;;
5299;SDS011;2672;42.670;23.258;2023-02-11T09:40:29;17.30;;;10.07;;
5299;SDS011;2672;42.670;23.258;2023-02-11T09:45:27;17.83;;;9.80;;
5299;SDS011;2672;42.670;23.258;2023-02-11T09:47:56;19.20;;;11.13;;
5299;SDS011;2672;42.670;23.258;2023-02-11T09:50:33;21.23;;;9.85;;
5299;SDS011;2672;42.670;23.258;2023-02-11T09:53:06;50.03;;;13.33;;
5299;SDS011;2672;42.670;23.258;2023-02-11T09:55:38;21.77;;;11.40;;
5299;SDS011;2672;42.670;23.258;2023-02-11T09:58:13;16.88;;;9.68;;
5299;SDS011;2672;42.670;23.258;2023-02-11T10:00:41;15.10;;;8.40;;
5299;SDS011;2672;42.670;23.258;2023-02-11T10:08:23;24.13;;;9.57;;
5299;SDS011;2672;42.670;23.258;2023-02-11T10:11:03;33.05;;;10.52;;
5299;SDS011;2672;42.670;23.258;2023-02-11T10:18:37;19.60;;;10.40;;
5299;SDS011;2672;42.670;23.258;2023-02-11T10:23:50;12.40;;;6.57;;
5299;SDS011;2672;42.670;23.258;2023-02-11T10:26:16;11.50;;;6.87;;
5299;SDS011;2672;42.670;23.258;2023-02-11T10:28:43;13.77;;;8.17;;
5299;SDS011;2672;42.670;23.258;2023-02-11T10:36:03;10.43;;;6.40;;
5299;SDS011;2672;42.670;23.258;2023-02-11T10:38:29;14.17;;;6.77;;
5299;SDS011;2672;42.670;23.258;2023-02-11T10:40:54;17.40;;;8.17;;
5299;SDS011;2672;42.670;23.258;2023-02-11T10:43:21;13.90;;;7.70;;
5299;SDS011;2672;42.670;23.258;2023-02-11T10:45:49;19.57;;;9.50;;
5299;SDS011;2672;42.670;23.258;2023-02-11T10:53:31;13.57;;;8.77;;
5299;SDS011;2672;42.670;23.258;2023-02-11T10:55:57;14.03;;;7.90;;
5299;SDS011;2672;42.670;23.258;2023-02-11T11:01:06;17.70;;;8.33;;
5299;SDS011;2672;42.670;23.258;2023-02-11T11:03:39;14.67;;;7.60;;
5299;SDS011;2672;42.670;23.258;2023-02-11T11:06:09;14.53;;;7.10;;
5299;SDS011;2672;42.670;23.258;2023-02-11T11:08:46;13.73;;;7.90;;
5299;SDS011;2672;42.670;23.258;2023-02-11T11:11:29;10.33;;;6.50;;
5299;SDS011;2672;42.670;23.258;2023-02-11T11:13:56;14.47;;;8.80;;
5299;SDS011;2672;42.670;23.258;2023-02-11T11:18:51;13.93;;;7.10;;
5299;SDS011;2672;42.670;23.258;2023-02-11T11:21:21;11.07;;;7.03;;
5299;SDS011;2672;42.670;23.258;2023-02-11T11:23:51;18.43;;;8.20;;
5299;SDS011;2672;42.670;23.258;2023-02-11T11:26:17;16.83;;;7.90;;
5299;SDS011;2672;42.670;23.258;2023-02-11T11:31:15;18.37;;;9.57;;
5299;SDS011;2672;42.670;23.258;2023-02-11T11:33:42;15.50;;;7.57;;
5299;SDS011;2672;42.670;23.258;2023-02-11T11:36:10;16.20;;;8.10;;
5299;SDS011;2672;42.670;23.258;2023-02-11T11:38:37;11.90;;;7.30;;
5299;SDS011;2672;42.670;23.258;2023-02-11T11:43:37;20.47;;;7.77;;
5299;SDS011;2672;42.670;23.258;2023-02-11T11:46:03;13.13;;;7.50;;
5299;SDS011;2672;42.670;23.258;2023-02-11T11:48:35;19.43;;;8.20;;
5299;SDS011;2672;42.670;23.258;2023-02-11T11:51:03;16.80;;;10.97;;
5299;SDS011;2672;42.670;23.258;2023-02-11T11:53:40;59.20;;;32.03;;
5299;SDS011;2672;42.670;23.258;2023-02-11T11:56:10;26.60;;;15.00;;
5299;SDS011;2672;42.670;23.258;2023-02-11T11:58:37;14.07;;;7.90;;
5299;SDS011;2672;42.670;23.258;2023-02-11T12:08:58;12.60;;;7.30;;
5299;SDS011;2672;42.670;23.258;2023-02-11T12:13:56;13.40;;;7.83;;
5299;SDS011;2672;42.670;23.258;2023-02-11T12:29:34;11.33;;;7.30;;
5299;SDS011;2672;42.670;23.258;2023-02-11T12:42:17;15.57;;;7.70;;
5299;SDS011;2672;42.670;23.258;2023-02-11T12:45:11;11.93;;;7.30;;
5299;SDS011;2672;42.670;23.258;2023-02-11T12:53:19;10.50;;;6.80;;
5299;SDS011;2672;42.670;23.258;2023-02-11T12:55:50;15.63;;;8.17;;
5299;SDS011;2672;42.670;23.258;2023-02-11T12:58:19;18.20;;;9.33;;
5299;SDS011;2672;42.670;23.258;2023-02-11T13:03:11;15.47;;;7.30;;
5299;SDS011;2672;42.670;23.258;2023-02-11T13:05:48;16.77;;;7.13;;
5299;SDS011;2672;42.670;23.258;2023-02-11T13:10:42;16.70;;;8.73;;
5299;SDS011;2672;42.670;23.258;2023-02-11T13:13:13;18.10;;;8.00;;
5299;SDS011;2672;42.670;23.258;2023-02-11T13:16:42;15.00;;;8.37;;
5299;SDS011;2672;42.670;23.258;2023-02-11T13:18:41;20.60;;;10.60;;
5299;SDS011;2672;42.670;23.258;2023-02-11T13:23:42;14.20;;;7.73;;
5299;SDS011;2672;42.670;23.258;2023-02-11T13:31:39;13.90;;;7.50;;
5299;SDS011;2672;42.670;23.258;2023-02-11T13:34:52;14.80;;;7.83;;
5299;SDS011;2672;42.670;23.258;2023-02-11T13:36:54;10.30;;;6.67;;
5299;SDS011;2672;42.670;23.258;2023-02-11T13:39:20;21.43;;;7.30;;
5299;SDS011;2672;42.670;23.258;2023-02-11T13:41:45;10.53;;;6.60;;
5299;SDS011;2672;42.670;23.258;2023-02-11T13:46:56;15.50;;;7.83;;
5299;SDS011;2672;42.670;23.258;2023-02-11T13:49:36;12.53;;;6.80;;
5299;SDS011;2672;42.670;23.258;2023-02-11T13:52:05;14.63;;;8.13;;
5299;SDS011;2672;42.670;23.258;2023-02-11T13:54:34;17.27;;;7.90;;
5299;SDS011;2672;42.670;23.258;2023-02-11T14:00:03;13.40;;;6.87;;
5299;SDS011;2672;42.670;23.258;2023-02-11T14:02:32;13.50;;;6.80;;
5299;SDS011;2672;42.670;23.258;2023-02-11T14:11:05;10.37;;;7.33;;
5299;SDS011;2672;42.670;23.258;2023-02-11T14:16:11;10.27;;;7.13;;
5299;SDS011;2672;42.670;23.258;2023-02-11T14:23:46;14.43;;;7.80;;
5299;SDS011;2672;42.670;23.258;2023-02-11T14:26:19;17.63;;;7.97;;
5299;SDS011;2672;42.670;23.258;2023-02-11T14:28:51;12.90;;;7.23;;
5299;SDS011;2672;42.670;23.258;2023-02-11T14:39:18;12.63;;;7.80;;
5299;SDS011;2672;42.670;23.258;2023-02-11T14:41:45;15.13;;;7.90;;
5299;SDS011;2672;42.670;23.258;2023-02-11T14:44:16;14.20;;;7.57;;
5299;SDS011;2672;42.670;23.258;2023-02-11T14:46:45;11.13;;;7.40;;
5299;SDS011;2672;42.670;23.258;2023-02-11T14:49:15;14.20;;;8.17;;
5299;SDS011;2672;42.670;23.258;2023-02-11T14:51:45;14.93;;;8.33;;
5299;SDS011;2672;42.670;23.258;2023-02-11T14:54:18;13.33;;;7.97;;
5299;SDS011;2672;42.670;23.258;2023-02-11T14:57:03;18.87;;;8.20;;
5299;SDS011;2672;42.670;23.258;2023-02-11T14:59:28;17.67;;;8.70;;
5299;SDS011;2672;42.670;23.258;2023-02-11T15:01:54;14.97;;;8.90;;
5299;SDS011;2672;42.670;23.258;2023-02-11T15:04:23;15.47;;;9.27;;
5299;SDS011;2672;42.670;23.258;2023-02-11T15:06:49;18.90;;;11.00;;
5299;SDS011;2672;42.670;23.258;2023-02-11T15:09:15;17.40;;;9.10;;
5299;SDS011;2672;42.670;23.258;2023-02-11T15:11:42;14.47;;;9.00;;
5299;SDS011;2672;42.670;23.258;2023-02-11T15:14:10;15.95;;;8.25;;
5299;SDS011;2672;42.670;23.258;2023-02-11T15:16:39;15.87;;;8.80;;
5299;SDS011;2672;42.670;23.258;2023-02-11T15:19:06;14.88;;;8.35;;
5299;SDS011;2672;42.670;23.258;2023-02-11T15:21:32;13.23;;;8.37;;
5299;SDS011;2672;42.670;23.258;2023-02-11T15:24:00;14.27;;;7.80;;
5299;SDS011;2672;42.670;23.258;2023-02-11T15:26:25;12.20;;;7.07;;
5299;SDS011;2672;42.670;23.258;2023-02-11T15:28:51;14.90;;;7.50;;
5299;SDS011;2672;42.670;23.258;2023-02-11T15:31:17;12.70;;;8.03;;
5299;SDS011;2672;42.670;23.258;2023-02-11T15:33:43;16.63;;;7.73;;
5299;SDS011;2672;42.670;23.258;2023-02-11T15:36:10;17.50;;;9.30;;
5299;SDS011;2672;42.670;23.258;2023-02-11T15:38:35;16.23;;;9.20;;
5299;SDS011;2672;42.670;23.258;2023-02-11T15:41:01;21.47;;;10.50;;
5299;SDS011;2672;42.670;23.258;2023-02-11T15:43:46;20.85;;;9.90;;
5299;SDS011;2672;42.670;23.258;2023-02-11T15:46:12;22.08;;;11.48;;
5299;SDS011;2672;42.670;23.258;2023-02-11T15:48:48;22.63;;;13.15;;
5299;SDS011;2672;42.670;23.258;2023-02-11T15:51:26;23.25;;;12.63;;
5299;SDS011;2672;42.670;23.258;2023-02-11T15:53:57;19.17;;;11.90;;
5299;SDS011;2672;42.670;23.258;2023-02-11T15:58:53;17.42;;;9.65;;
5299;SDS011;2672;42.670;23.258;2023-02-11T16:01:32;23.95;;;11.57;;
5299;SDS011;2672;42.670;23.258;2023-02-11T16:03:58;19.80;;;11.98;;
5299;SDS011;2672;42.670;23.258;2023-02-11T16:06:25;20.47;;;11.77;;
5299;SDS011;2672;42.670;23.258;2023-02-11T16:11:35;20.05;;;10.90;;
5299;SDS011;2672;42.670;23.258;2023-02-11T16:14:00;17.48;;;9.15;;
5299;SDS011;2672;42.670;23.258;2023-02-11T16:16:27;13.60;;;8.88;;
5299;SDS011;2672;42.670;23.258;2023-02-11T16:18:54;20.52;;;11.52;;
5299;SDS011;2672;42.670;23.258;2023-02-11T16:21:25;21.13;;;9.77;;
5299;SDS011;2672;42.670;23.258;2023-02-11T16:23:54;19.60;;;9.25;;
5299;SDS011;2672;42.670;23.258;2023-02-11T16:26:28;19.42;;;10.68;;
5299;SDS011;2672;42.670;23.258;2023-02-11T16:29:10;22.33;;;11.10;;
5299;SDS011;2672;42.670;23.258;2023-02-11T16:31:38;17.08;;;10.48;;
5299;SDS011;2672;42.670;23.258;2023-02-11T16:34:06;14.20;;;8.98;;
5299;SDS011;2672;42.670;23.258;2023-02-11T16:36:35;12.85;;;7.75;;
5299;SDS011;2672;42.670;23.258;2023-02-11T16:39:00;15.07;;;8.63;;
5299;SDS011;2672;42.670;23.258;2023-02-11T16:41:25;11.37;;;6.97;;
5299;SDS011;2672;42.670;23.258;2023-02-11T16:43:51;13.60;;;8.60;;
5299;SDS011;2672;42.670;23.258;2023-02-11T16:46:16;15.23;;;9.20;;
5299;SDS011;2672;42.670;23.258;2023-02-11T16:48:41;13.63;;;7.80;;
5299;SDS011;2672;42.670;23.258;2023-02-11T16:51:07;11.67;;;6.63;;
5299;SDS011;2672;42.670;23.258;2023-02-11T16:53:34;11.13;;;5.72;;
5299;SDS011;2672;42.670;23.258;2023-02-11T16:56:00;17.27;;;8.80;;
5299;SDS011;2672;42.670;23.258;2023-02-11T16:58:25;14.67;;;9.07;;
5299;SDS011;2672;42.670;23.258;2023-02-11T17:00:50;16.23;;;7.97;;
5299;SDS011;2672;42.670;23.258;2023-02-11T17:03:23;14.60;;;9.27;;
5299;SDS011;2672;42.670;23.258;2023-02-11T17:05:49;12.30;;;7.28;;
5299;SDS011;2672;42.670;23.258;2023-02-11T17:08:15;12.43;;;7.77;;
5299;SDS011;2672;42.670;23.258;2023-02-11T17:10:40;14.97;;;9.57;;
5299;SDS011;2672;42.670;23.258;2023-02-11T17:13:06;17.33;;;11.20;;
5299;SDS011;2672;42.670;23.258;2023-02-11T17:15:31;20.83;;;10.70;;
5299;SDS011;2672;42.670;23.258;2023-02-11T17:17:57;17.53;;;10.80;;
5299;SDS011;2672;42.670;23.258;2023-02-11T17:20:22;21.57;;;11.00;;
5299;SDS011;2672;42.670;23.258;2023-02-11T17:22:48;19.23;;;11.30;;
5299;SDS011;2672;42.670;23.258;2023-02-11T17:25:13;24.23;;;11.27;;